This is the latest recevied weather packets stored in our database for station/object KD7DVD-1. If no packets are shown the sender has not sent any weather packets the latest 10 day(s).
| Time | Temp. | Humidity | Pressure | Rain* | Wind** | Luminosity | Snow |
|---|---|---|---|---|---|---|---|
| 1777618816 | 15° C | 77% | 1016 hPa | 0 mm | - | - | - |
| 1777617018 | 15° C | 75% | 1016 hPa | 0 mm | - | - | - |
| 1777615217 | 15° C | 75% | 1015.9 hPa | 0 mm | - | - | - |
| 1777613417 | 15.56° C | 74% | 1015.9 hPa | 0 mm | - | - | - |
| 1777611617 | 16.11° C | 72% | 1015.7 hPa | 0 mm | - | - | - |
| 1777609817 | 16.67° C | 69% | 1015.6 hPa | 0 mm | - | - | - |
| 1777608017 | 17.78° C | 65% | 1015.4 hPa | 0 mm | - | - | - |
| 1777606217 | 18.33° C | 63% | 1015.2 hPa | 0 mm | - | - | - |
| 1777604417 | 19.44° C | 58% | 1015.1 hPa | 0 mm | - | - | - |
| 1777602617 | 21.67° C | 52% | 1015 hPa | 0 mm | - | - | - |
| 1777600817 | 24.44° C | 40% | 1015.1 hPa | 0 mm | - | - | - |
| 1777599017 | 23.89° C | 37% | 1015.4 hPa | 0 mm | - | - | - |
| 1777597217 | 23.89° C | 43% | 1015.7 hPa | 0 mm | - | - | - |
| 1777595417 | 23.33° C | 46% | 1015.8 hPa | 0 mm | - | - | - |
| 1777593616 | 22.78° C | 49% | 1015.9 hPa | 0 mm | - | - | - |
| 1777591824 | 23.33° C | 46% | 1016.5 hPa | 0 mm | - | - | - |
| 1777590016 | 23.33° C | 43% | 1016.9 hPa | 0 mm | - | - | - |
| 1777588216 | 21.67° C | 48% | 1017.3 hPa | 0 mm | - | - | - |
| 1777586416 | 21.67° C | 49% | 1017.4 hPa | 0 mm | - | - | - |
| 1777584616 | 20.56° C | 52% | 1017.8 hPa | 0 mm | - | - | - |
| 1777582816 | 20° C | 56% | 1017.8 hPa | 0 mm | - | - | - |
| 1777581016 | 20° C | 57% | 1018.2 hPa | 0 mm | - | - | - |
| 1777579216 | 19.44° C | 58% | 1018.4 hPa | 0 mm | - | - | - |
| 1777577416 | 18.33° C | 60% | 1018.7 hPa | 0 mm | - | - | - |
| 1777575616 | 18.33° C | 64% | 1019 hPa | 0 mm | - | - | - |
* Rain latest hour (hover to see other rain measurements)
** Current wind speed in m/s (hover to see current wind gust speed)